Time,TemperatureF,DewpointF,PressureIn,WindDirection,WindDirectionDegrees,WindSpeedMPH,WindSpeedGustMPH,Humidity,HourlyPrecipIn,Conditions,Clouds,dailyrainin,SoftwareType,DateUTC
2013-01-22 00:00:00,15.6,8.5,30.07,West,259,2.0,15.0,73,0.00,,,0.00,WUHU216DAVISVP2,2013-01-22 05:00:00,
2013-01-22 00:01:00,15.6,8.5,30.07,WSW,241,5.0,13.0,73,0.00,,,0.00,WUHU216DAVISVP2,2013-01-22 05:01:00,
2013-01-22 00:06:00,15.5,8.1,30.07,North,350,1.0,12.0,72,0.00,,,0.00,WUHU216DAVISVP2,2013-01-22 05:06:00,
2013-01-22 00:11:00,15.5,8.7,30.07,West,277,6.0,12.0,74,0.00,,,0.00,WUHU216DAVISVP2,2013-01-22 05:11:00,
2013-01-22 00:16:00,15.4,8.6,30.07,NW,316,4.0,12.0,74,0.00,,,0.00,WUHU216DAVISVP2,2013-01-22 05:16:00,
2013-01-22 00:21:00,15.4,8.9,30.07,NNW,329,5.0,12.0,75,0.00,,,0.00,WUHU216DAVISVP2,2013-01-22 05:21:00,
2013-01-22 00:26:00,15.3,8.5,30.07,WNW,291,6.0,12.0,74,0.00,,,0.00,WUHU216DAVISVP2,2013-01-22 05:26:00,
2013-01-22 00:31:00,15.2,8.1,30.07,West,278,1.0,13.0,73,0.00,,,0.00,WUHU216DAVISVP2,2013-01-22 05:31:00,
2013-01-22 00:36:00,15.3,8.2,30.07,WSW,255,10.0,13.0,73,0.00,,,0.00,WUHU216DAVISVP2,2013-01-22 05:36:00,
2013-01-22 00:41:00,15.1,7.4,30.07,SW,233,5.0,13.0,71,0.00,,,0.00,WUHU216DAVISVP2,2013-01-22 05:41:00,
2013-01-22 00:46:00,15.0,7.9,30.07,WNW,286,4.0,16.0,73,0.00,,,0.00,WUHU216DAVISVP2,2013-01-22 05:46:00,
2013-01-22 00:51:00,14.9,8.1,30.07,SW,224,4.0,16.0,74,0.00,,,0.00,WUHU216DAVISVP2,2013-01-22 05:51:00,
2013-01-22 00:56:00,14.8,7.4,30.07,WNW,290,4.0,16.0,72,0.00,,,0.00,WUHU216DAVISVP2,2013-01-22 05:56:00,
2013-01-22 01:01:00,14.8,7.4,30.07,SW,226,10.0,16.0,72,0.00,,,0.00,WUHU216DAVISVP2,2013-01-22 06:01:00,
2013-01-22 01:06:00,14.7,7.7,30.08,WNW,284,9.0,13.0,73,0.00,,,0.00,WUHU216DAVISVP2,2013-01-22 06:06:00,
2013-01-22 01:11:00,14.4,7.9,30.08,SSW,211,4.0,13.0,75,0.00,,,0.00,WUHU216DAVISVP2,2013-01-22 06:11:00,
2013-01-22 01:16:00,14.1,8.5,30.08,WNW,294,4.0,13.0,78,0.00,,,0.00,WUHU216DAVISVP2,2013-01-22 06:16:00,
2013-01-22 01:21:00,13.9,8.9,30.08,NW,313,10.0,13.0,80,0.00,,,0.00,WUHU216DAVISVP2,2013-01-22 06:21:00,
2013-01-22 01:26:00,13.5,8.7,30.09,SW,222,2.0,13.0,81,0.00,,,0.00,WUHU216DAVISVP2,2013-01-22 06:26:00,
2013-01-22 01:31:00,13.3,8.3,30.09,West,268,2.0,13.0,80,0.00,,,0.00,WUHU216DAVISVP2,2013-01-22 06:31:00,
2013-01-22 01:36:00,13.2,7.3,30.09,NW,304,3.0,13.0,77,0.00,,,0.00,WUHU216DAVISVP2,2013-01-22 06:36:00,
2013-01-22 01:41:00,13.2,7.3,30.09,WSW,245,2.0,11.0,77,0.00,,,0.00,WUHU216DAVISVP2,2013-01-22 06:41:00,
2013-01-22 01:46:00,13.2,7.1,30.10,West,270,1.0,10.0,76,0.00,,,0.00,WUHU216DAVISVP2,2013-01-22 06:46:00,
2013-01-22 01:51:00,13.2,6.5,30.10,WNW,302,4.0,11.0,74,0.00,,,0.00,WUHU216DAVISVP2,2013-01-22 06:51:00,
2013-01-22 01:56:00,13.1,5.5,30.10,NW,321,1.0,11.0,71,0.00,,,0.00,WUHU216DAVISVP2,2013-01-22 06:56:00,
2013-01-22 02:01:00,13.0,5.4,30.10,NW,320,7.0,11.0,71,0.00,,,0.00,WUHU216DAVISVP2,2013-01-22 07:01:00,
2013-01-22 02:06:00,12.8,5.2,30.11,WNW,295,2.0,11.0,71,0.00,,,0.00,WUHU216DAVISVP2,2013-01-22 07:06:00,
2013-01-22 02:11:00,12.7,5.1,30.11,West,263,3.0,11.0,71,0.00,,,0.00,WUHU216DAVISVP2,2013-01-22 07:11:00,
2013-01-22 02:16:00,12.5,4.9,30.11,NNW,339,4.0,12.0,71,0.00,,,0.00,WUHU216DAVISVP2,2013-01-22 07:16:00,
2013-01-22 02:22:00,12.4,5.1,30.12,NW,318,0.0,12.0,72,0.00,,,0.00,WUHU216DAVISVP2,2013-01-22 07:22:00,
2013-01-22 02:27:00,12.3,5.3,30.12,West,279,10.0,13.0,73,0.00,,,0.00,WUHU216DAVISVP2,2013-01-22 07:27:00,
2013-01-22 02:32:00,12.0,5.9,30.12,WNW,301,2.0,14.0,76,0.00,,,0.00,WUHU216DAVISVP2,2013-01-22 07:32:00,
2013-01-22 02:37:00,11.8,6.3,30.13,West,280,6.0,14.0,78,0.00,,,0.00,WUHU216DAVISVP2,2013-01-22 07:37:00,
2013-01-22 02:42:00,11.6,6.4,30.13,NNW,337,5.0,15.0,79,0.00,,,0.00,WUHU216DAVISVP2,2013-01-22 07:42:00,
2013-01-22 02:47:00,11.4,6.4,30.13,West,276,8.0,15.0,80,0.00,,,0.00,WUHU216DAVISVP2,2013-01-22 07:47:00,
2013-01-22 02:52:00,11.3,6.3,30.14,WNW,289,5.0,15.0,80,0.00,,,0.00,WUHU216DAVISVP2,2013-01-22 07:52:00,
2013-01-22 02:57:00,11.1,4.4,30.14,West,260,7.0,16.0,74,0.00,,,0.00,WUHU216DAVISVP2,2013-01-22 07:57:00,
2013-01-22 03:02:00,11.0,3.8,30.14,NNW,328,10.0,16.0,72,0.00,,,0.00,WUHU216DAVISVP2,2013-01-22 08:02:00,
2013-01-22 03:07:00,10.9,3.6,30.14,SW,228,2.0,16.0,72,0.00,,,0.00,WUHU216DAVISVP2,2013-01-22 08:07:00,
2013-01-22 03:12:00,10.8,3.3,30.14,WNW,297,3.0,16.0,71,0.00,,,0.00,WUHU216DAVISVP2,2013-01-22 08:12:00,
2013-01-22 03:17:00,10.8,3.3,30.14,NW,310,4.0,14.0,71,0.00,,,0.00,WUHU216DAVISVP2,2013-01-22 08:17:00,
2013-01-22 03:22:00,10.7,2.9,30.14,WNW,301,5.0,13.0,70,0.00,,,0.00,WUHU216DAVISVP2,2013-01-22 08:22:00,
2013-01-22 03:27:00,10.6,2.7,30.14,WNW,297,4.0,13.0,70,0.00,,,0.00,WUHU216DAVISVP2,2013-01-22 08:27:00,
2013-01-22 03:32:00,10.6,3.4,30.14,WSW,251,2.0,13.0,72,0.00,,,0.00,WUHU216DAVISVP2,2013-01-22 08:32:00,
2013-01-22 03:37:00,10.4,3.8,30.15,WNW,297,8.0,13.0,74,0.00,,,0.00,WUHU216DAVISVP2,2013-01-22 08:37:00,
2013-01-22 03:42:00,10.2,4.2,30.14,WSW,256,2.0,12.0,76,0.00,,,0.00,WUHU216DAVISVP2,2013-01-22 08:42:00,
2013-01-22 03:47:00,10.0,4.5,30.14,WNW,301,2.0,12.0,78,0.00,,,0.00,WUHU216DAVISVP2,2013-01-22 08:47:00,
2013-01-22 03:52:00,9.9,4.4,30.14,West,267,1.0,10.0,78,0.00,,,0.00,WUHU216DAVISVP2,2013-01-22 08:52:00,
2013-01-22 03:57:00,9.9,4.4,30.14,WNW,284,1.0,10.0,78,0.00,,,0.00,WUHU216DAVISVP2,2013-01-22 08:57:00,
2013-01-22 04:02:00,9.9,4.4,30.14,WNW,302,3.0,7.0,78,0.00,,,0.00,WUHU216DAVISVP2,2013-01-22 09:02:00,
2013-01-22 04:07:00,9.9,4.4,30.14,SSW,193,2.0,7.0,78,0.00,,,0.00,WUHU216DAVISVP2,2013-01-22 09:07:00,
2013-01-22 04:12:00,9.9,4.7,30.15,WSW,241,1.0,7.0,79,0.00,,,0.00,WUHU216DAVISVP2,2013-01-22 09:12:00,
2013-01-22 04:17:00,9.9,4.4,30.15,SSW,200,2.0,7.0,78,0.00,,,0.00,WUHU216DAVISVP2,2013-01-22 09:17:00,
2013-01-22 04:22:00,9.8,3.5,30.15,West,266,2.0,9.0,75,0.00,,,0.00,WUHU216DAVISVP2,2013-01-22 09:22:00,
2013-01-22 04:27:00,9.7,2.5,30.15,WSW,247,7.0,9.0,72,0.00,,,0.00,WUHU216DAVISVP2,2013-01-22 09:27:00,
2013-01-22 04:32:00,9.6,1.8,30.16,WNW,285,3.0,14.0,70,0.00,,,0.00,WUHU216DAVISVP2,2013-01-22 09:32:00,
2013-01-22 04:37:00,9.6,1.5,30.16,WNW,296,6.0,14.0,69,0.00,,,0.00,WUHU216DAVISVP2,2013-01-22 09:37:00,
2013-01-22 04:42:00,9.6,2.1,30.16,SW,236,4.0,14.0,71,0.00,,,0.00,WUHU216DAVISVP2,2013-01-22 09:42:00,
2013-01-22 04:47:00,9.5,2.6,30.16,WNW,289,6.0,14.0,73,0.00,,,0.00,WUHU216DAVISVP2,2013-01-22 09:47:00,
2013-01-22 04:52:00,9.3,1.8,30.16,West,268,6.0,13.0,71,0.00,,,0.00,WUHU216DAVISVP2,2013-01-22 09:52:00,
2013-01-22 04:57:00,9.2,2.0,30.17,WNW,302,6.0,14.0,72,0.00,,,0.00,WUHU216DAVISVP2,2013-01-22 09:57:00,
2013-01-22 05:02:00,9.1,1.9,30.17,NW,305,4.0,14.0,72,0.00,,,0.00,WUHU216DAVISVP2,2013-01-22 10:02:00,
2013-01-22 05:07:00,9.0,1.2,30.17,West,262,2.0,14.0,70,0.00,,,0.00,WUHU216DAVISVP2,2013-01-22 10:07:00,
2013-01-22 05:12:00,9.0,1.2,30.17,SW,215,5.0,14.0,70,0.00,,,0.00,WUHU216DAVISVP2,2013-01-22 10:12:00,
2013-01-22 05:17:00,9.0,1.2,30.17,WNW,293,5.0,9.0,70,0.00,,,0.00,WUHU216DAVISVP2,2013-01-22 10:17:00,
2013-01-22 05:22:00,9.0,1.6,30.17,NW,311,6.0,10.0,71,0.00,,,0.00,WUHU216DAVISVP2,2013-01-22 10:22:00,
2013-01-22 05:27:00,9.0,2.1,30.17,SSW,210,4.0,10.0,73,0.00,,,0.00,WUHU216DAVISVP2,2013-01-22 10:27:00,
2013-01-22 05:32:00,9.0,3.0,30.18,West,262,4.0,10.0,76,0.00,,,0.00,WUHU216DAVISVP2,2013-01-22 10:32:00,
2013-01-22 05:37:00,8.8,2.2,30.18,West,281,6.0,12.0,74,0.00,,,0.00,WUHU216DAVISVP2,2013-01-22 10:37:00,
2013-01-22 05:42:00,8.7,2.1,30.18,NW,314,2.0,15.0,74,0.00,,,0.00,WUHU216DAVISVP2,2013-01-22 10:42:00,
2013-01-22 05:47:00,8.7,2.4,30.18,SSW,210,3.0,15.0,75,0.00,,,0.00,WUHU216DAVISVP2,2013-01-22 10:47:00,
2013-01-22 05:52:00,8.6,2.6,30.18,NW,307,0.0,15.0,76,0.00,,,0.00,WUHU216DAVISVP2,2013-01-22 10:52:00,
2013-01-22 05:57:00,8.6,2.6,30.19,SSW,212,4.0,15.0,76,0.00,,,0.00,WUHU216DAVISVP2,2013-01-22 10:57:00,
2013-01-22 06:02:00,8.6,2.3,30.19,West,264,4.0,13.0,75,0.00,,,0.00,WUHU216DAVISVP2,2013-01-22 11:02:00,
2013-01-22 06:07:00,8.6,2.0,30.19,WNW,289,8.0,13.0,74,0.00,,,0.00,WUHU216DAVISVP2,2013-01-22 11:07:00,
2013-01-22 06:12:00,8.6,1.5,30.19,WNW,299,5.0,13.0,72,0.00,,,0.00,WUHU216DAVISVP2,2013-01-22 11:12:00,
2013-01-22 06:17:00,8.5,1.3,30.19,WNW,295,5.0,13.0,72,0.00,,,0.00,WUHU216DAVISVP2,2013-01-22 11:17:00,
2013-01-22 06:22:00,8.5,0.8,30.20,West,261,1.0,11.0,70,0.00,,,0.00,WUHU216DAVISVP2,2013-01-22 11:22:00,
2013-01-22 06:27:00,8.4,0.4,30.20,SW,214,3.0,10.0,69,0.00,,,0.00,WUHU216DAVISVP2,2013-01-22 11:27:00,
2013-01-22 06:32:00,8.4,0.7,30.20,West,270,3.0,10.0,70,0.00,,,0.00,WUHU216DAVISVP2,2013-01-22 11:32:00,
2013-01-22 06:37:00,8.4,1.0,30.21,West,281,9.0,11.0,71,0.00,,,0.00,WUHU216DAVISVP2,2013-01-22 11:37:00,
2013-01-22 06:42:00,8.4,1.0,30.21,WNW,283,5.0,16.0,71,0.00,,,0.00,WUHU216DAVISVP2,2013-01-22 11:42:00,
2013-01-22 06:47:00,8.4,1.3,30.21,West,272,1.0,16.0,72,0.00,,,0.00,WUHU216DAVISVP2,2013-01-22 11:47:00,
2013-01-22 06:52:00,8.3,0.8,30.21,WSW,239,2.0,16.0,71,0.00,,,0.00,WUHU216DAVISVP2,2013-01-22 11:52:00,
2013-01-22 06:57:00,8.3,0.9,30.22,WNW,290,11.0,16.0,71,0.00,,,0.00,WUHU216DAVISVP2,2013-01-22 11:57:00,
2013-01-22 07:02:00,8.2,0.8,30.22,WSW,256,0.0,12.0,71,0.00,,,0.00,WUHU216DAVISVP2,2013-01-22 12:02:00,
2013-01-22 07:07:00,8.2,1.1,30.22,SSW,195,5.0,12.0,72,0.00,,,0.00,WUHU216DAVISVP2,2013-01-22 12:07:00,
2013-01-22 07:12:00,8.1,1.3,30.22,SW,231,1.0,11.0,73,0.00,,,0.00,WUHU216DAVISVP2,2013-01-22 12:12:00,
2013-01-22 07:17:00,8.1,1.2,30.22,WSW,258,1.0,8.0,73,0.00,,,0.00,WUHU216DAVISVP2,2013-01-22 12:17:00,
2013-01-22 07:22:00,8.1,1.6,30.22,SW,218,2.0,8.0,74,0.00,,,0.00,WUHU216DAVISVP2,2013-01-22 12:22:00,
2013-01-22 07:27:00,8.1,1.5,30.22,WSW,258,4.0,8.0,74,0.00,,,0.00,WUHU216DAVISVP2,2013-01-22 12:27:00,
2013-01-22 07:32:00,8.1,1.6,30.22,West,281,2.0,7.0,74,0.00,,,0.00,WUHU216DAVISVP2,2013-01-22 12:32:00,
2013-01-22 07:37:00,8.1,1.5,30.22,WSW,245,4.0,8.0,74,0.00,,,0.00,WUHU216DAVISVP2,2013-01-22 12:37:00,
2013-01-22 07:42:00,8.2,1.4,30.23,SW,214,3.0,12.0,73,0.00,,,0.00,WUHU216DAVISVP2,2013-01-22 12:42:00,
2013-01-22 07:47:00,8.3,1.8,30.23,West,280,4.0,12.0,74,0.00,,,0.00,WUHU216DAVISVP2,2013-01-22 12:47:00,
2013-01-22 07:52:00,8.3,1.5,30.23,SW,235,4.0,12.0,73,0.00,,,0.00,WUHU216DAVISVP2,2013-01-22 12:52:00,
2013-01-22 07:57:00,8.3,2.0,30.23,West,260,0.0,12.0,75,0.00,,,0.00,WUHU216DAVISVP2,2013-01-22 12:57:00,
2013-01-22 08:02:00,8.4,2.1,30.23,WSW,256,3.0,11.0,75,0.00,,,0.00,WUHU216DAVISVP2,2013-01-22 13:02:00,
2013-01-22 08:08:00,8.4,2.4,30.24,SSW,209,5.0,11.0,76,0.00,,,0.00,WUHU216DAVISVP2,2013-01-22 13:08:00,
2013-01-22 08:13:00,8.5,2.5,30.24,SW,224,1.0,11.0,76,0.00,,,0.00,WUHU216DAVISVP2,2013-01-22 13:13:00,
2013-01-22 08:18:00,8.5,1.9,30.24,West,276,7.0,12.0,74,0.00,,,0.00,WUHU216DAVISVP2,2013-01-22 13:18:00,
2013-01-22 08:23:00,8.5,1.7,30.25,WNW,301,2.0,12.0,73,0.00,,,0.00,WUHU216DAVISVP2,2013-01-22 13:23:00,
2013-01-22 08:28:00,8.5,1.7,30.25,SSW,207,3.0,12.0,73,0.00,,,0.00,WUHU216DAVISVP2,2013-01-22 13:28:00,
2013-01-22 08:33:00,8.5,1.1,30.25,SW,228,10.0,16.0,71,0.00,,,0.00,WUHU216DAVISVP2,2013-01-22 13:33:00,
2013-01-22 08:38:00,8.6,1.5,30.25,NW,305,3.0,16.0,72,0.00,,,0.00,WUHU216DAVISVP2,2013-01-22 13:38:00,
2013-01-22 08:43:00,8.6,1.2,30.25,West,273,5.0,16.0,71,0.00,,,0.00,WUHU216DAVISVP2,2013-01-22 13:43:00,
2013-01-22 08:48:00,8.7,1.3,30.25,SSW,207,5.0,15.0,71,0.00,,,0.00,WUHU216DAVISVP2,2013-01-22 13:48:00,
2013-01-22 08:53:00,8.8,1.4,30.25,SSW,199,9.0,13.0,71,0.00,,,0.00,WUHU216DAVISVP2,2013-01-22 13:53:00,
2013-01-22 08:58:00,8.9,1.5,30.25,WSW,247,3.0,14.0,71,0.00,,,0.00,WUHU216DAVISVP2,2013-01-22 13:58:00,
2013-01-22 09:03:00,9.0,1.6,30.25,WNW,298,9.0,15.0,71,0.00,,,0.00,WUHU216DAVISVP2,2013-01-22 14:03:00,
2013-01-22 09:08:00,9.0,1.2,30.26,West,279,5.0,15.0,70,0.00,,,0.00,WUHU216DAVISVP2,2013-01-22 14:08:00,
2013-01-22 09:13:00,9.0,1.2,30.25,WNW,295,5.0,15.0,70,0.00,,,0.00,WUHU216DAVISVP2,2013-01-22 14:13:00,
2013-01-22 09:18:00,9.1,1.3,30.26,West,266,10.0,15.0,70,0.00,,,0.00,WUHU216DAVISVP2,2013-01-22 14:18:00,
2013-01-22 09:23:00,9.1,1.0,30.26,WNW,286,11.0,14.0,69,0.00,,,0.00,WUHU216DAVISVP2,2013-01-22 14:23:00,
2013-01-22 09:28:00,9.1,1.0,30.26,WNW,294,4.0,17.0,69,0.00,,,0.00,WUHU216DAVISVP2,2013-01-22 14:28:00,
2013-01-22 09:33:00,9.2,1.4,30.26,WNW,299,9.0,17.0,70,0.00,,,0.00,WUHU216DAVISVP2,2013-01-22 14:33:00,
2013-01-22 09:38:00,9.2,1.4,30.26,West,260,9.0,17.0,70,0.00,,,0.00,WUHU216DAVISVP2,2013-01-22 14:38:00,
2013-01-22 09:43:00,9.4,1.9,30.26,West,259,7.0,17.0,71,0.00,,,0.00,WUHU216DAVISVP2,2013-01-22 14:43:00,
2013-01-22 09:48:00,9.6,2.4,30.26,SW,218,10.0,17.0,72,0.00,,,0.00,WUHU216DAVISVP2,2013-01-22 14:48:00,
2013-01-22 09:53:00,9.6,2.1,30.26,NNW,328,10.0,16.0,71,0.00,,,0.00,WUHU216DAVISVP2,2013-01-22 14:53:00,
2013-01-22 09:58:00,9.6,2.7,30.27,WNW,300,7.0,16.0,73,0.00,,,0.00,WUHU216DAVISVP2,2013-01-22 14:58:00,
2013-01-22 10:03:00,9.6,2.7,30.27,West,264,14.0,15.0,73,0.00,,,0.00,WUHU216DAVISVP2,2013-01-22 15:03:00,
2013-01-22 10:08:00,9.6,2.1,30.27,SW,230,14.0,14.0,71,0.00,,,0.00,WUHU216DAVISVP2,2013-01-22 15:08:00,
2013-01-22 10:13:00,9.8,2.3,30.28,West,274,3.0,14.0,71,0.00,,,0.00,WUHU216DAVISVP2,2013-01-22 15:13:00,
2013-01-22 10:18:00,9.9,1.8,30.27,West,274,4.0,14.0,69,0.00,,,0.00,WUHU216DAVISVP2,2013-01-22 15:18:00,
2013-01-22 10:23:00,9.9,1.5,30.28,South,184,5.0,17.0,68,0.00,,,0.00,WUHU216DAVISVP2,2013-01-22 15:23:00,
2013-01-22 10:28:00,10.0,1.6,30.28,NNE,14,4.0,17.0,68,0.00,,,0.00,WUHU216DAVISVP2,2013-01-22 15:28:00,
2013-01-22 10:34:00,9.9,1.5,30.28,West,268,7.0,17.0,68,0.00,,,0.00,WUHU216DAVISVP2,2013-01-22 15:34:00,
2013-01-22 10:39:00,9.9,1.8,30.28,WNW,283,5.0,17.0,69,0.00,,,0.00,WUHU216DAVISVP2,2013-01-22 15:39:00,
2013-01-22 10:44:00,10.1,2.3,30.28,North,4,3.0,17.0,70,0.00,,,0.00,WUHU216DAVISVP2,2013-01-22 15:44:00,
2013-01-22 10:48:00,10.3,3.4,30.28,North,359,7.0,17.0,73,0.00,,,0.00,WUHU216DAVISVP2,2013-01-22 15:48:00,
2013-01-22 10:54:00,10.4,2.0,30.28,NW,306,8.0,15.0,68,0.00,,,0.00,WUHU216DAVISVP2,2013-01-22 15:54:00,
2013-01-22 10:59:00,10.5,1.4,30.28,WNW,303,11.0,15.0,66,0.00,,,0.00,WUHU216DAVISVP2,2013-01-22 15:59:00,
2013-01-22 11:03:00,10.6,0.5,30.28,WNW,289,8.0,19.0,63,0.00,,,0.00,WUHU216DAVISVP2,2013-01-22 16:03:00,
2013-01-22 11:08:00,10.7,0.3,30.28,WNW,301,7.0,19.0,62,0.00,,,0.00,WUHU216DAVISVP2,2013-01-22 16:08:00,
2013-01-22 11:13:00,10.9,0.5,30.28,NNW,329,13.0,19.0,62,0.00,,,0.00,WUHU216DAVISVP2,2013-01-22 16:13:00,
2013-01-22 11:18:00,10.8,-0.3,30.28,WNW,297,7.0,19.0,60,0.00,,,0.00,WUHU216DAVISVP2,2013-01-22 16:18:00,
2013-01-22 11:23:00,11.0,0.6,30.28,WSW,249,5.0,18.0,62,0.00,,,0.00,WUHU216DAVISVP2,2013-01-22 16:23:00,
2013-01-22 11:28:00,11.2,1.1,30.28,West,267,8.0,18.0,63,0.00,,,0.00,WUHU216DAVISVP2,2013-01-22 16:28:00,
2013-01-22 11:34:00,11.5,1.7,30.28,NW,316,10.0,18.0,64,0.00,,,0.00,WUHU216DAVISVP2,2013-01-22 16:34:00,
2013-01-22 11:39:00,11.4,1.6,30.28,North,4,9.0,18.0,64,0.00,,,0.00,WUHU216DAVISVP2,2013-01-22 16:39:00,
2013-01-22 11:44:00,11.4,0.6,30.27,NNE,23,8.0,18.0,61,0.00,,,0.00,WUHU216DAVISVP2,2013-01-22 16:44:00,
2013-01-22 11:49:00,11.7,0.9,30.27,NNW,342,7.0,18.0,61,0.00,,,0.00,WUHU216DAVISVP2,2013-01-22 16:49:00,
2013-01-22 11:54:00,12.3,0.7,30.27,WSW,257,5.0,18.0,59,0.00,,,0.00,WUHU216DAVISVP2,2013-01-22 16:54:00,
2013-01-22 11:59:00,12.8,0.8,30.27,West,267,6.0,18.0,58,0.00,,,0.00,WUHU216DAVISVP2,2013-01-22 16:59:00,
2013-01-22 12:04:00,12.8,1.6,30.27,WNW,283,9.0,16.0,60,0.00,,,0.00,WUHU216DAVISVP2,2013-01-22 17:04:00,
2013-01-22 12:09:00,13.1,1.8,30.26,NW,322,6.0,16.0,60,0.00,,,0.00,WUHU216DAVISVP2,2013-01-22 17:09:00,
2013-01-22 12:14:00,13.4,2.1,30.26,West,266,3.0,16.0,60,0.00,,,0.00,WUHU216DAVISVP2,2013-01-22 17:14:00,
2013-01-22 12:19:00,13.9,1.9,30.25,NNE,25,8.0,16.0,58,0.00,,,0.00,WUHU216DAVISVP2,2013-01-22 17:19:00,
2013-01-22 12:24:00,13.8,3.2,30.25,NNW,338,4.0,13.0,62,0.00,,,0.00,WUHU216DAVISVP2,2013-01-22 17:24:00,
2013-01-22 12:29:00,13.6,1.9,30.25,NNW,343,4.0,13.0,59,0.00,,,0.00,WUHU216DAVISVP2,2013-01-22 17:29:00,
2013-01-22 12:34:00,13.5,2.2,30.25,SW,218,11.0,13.0,60,0.00,,,0.00,WUHU216DAVISVP2,2013-01-22 17:34:00,
2013-01-22 12:39:00,13.4,2.5,30.25,West,267,14.0,16.0,61,0.00,,,0.00,WUHU216DAVISVP2,2013-01-22 17:39:00,
2013-01-22 12:44:00,13.5,2.9,30.25,West,270,12.0,16.0,62,0.00,,,0.00,WUHU216DAVISVP2,2013-01-22 17:44:00,
2013-01-22 12:49:00,13.6,3.0,30.25,NNW,339,8.0,16.0,62,0.00,,,0.00,WUHU216DAVISVP2,2013-01-22 17:49:00,
2013-01-22 12:54:00,13.4,3.2,30.25,SSW,206,4.0,16.0,63,0.00,,,0.00,WUHU216DAVISVP2,2013-01-22 17:54:00,
2013-01-22 12:59:00,13.0,3.2,30.25,NW,306,3.0,15.0,64,0.00,,,0.00,WUHU216DAVISVP2,2013-01-22 17:59:00,
2013-01-22 13:04:00,13.0,3.1,30.25,NW,318,1.0,15.0,64,0.00,,,0.00,WUHU216DAVISVP2,2013-01-22 18:04:00,
2013-01-22 13:09:00,12.9,3.4,30.24,WNW,293,2.0,10.0,65,0.00,,,0.00,WUHU216DAVISVP2,2013-01-22 18:09:00,
2013-01-22 13:14:00,12.8,3.0,30.25,NW,324,3.0,12.0,64,0.00,,,0.00,WUHU216DAVISVP2,2013-01-22 18:14:00,
2013-01-22 13:19:00,12.8,3.0,30.24,NNW,328,3.0,13.0,64,0.00,,,0.00,WUHU216DAVISVP2,2013-01-22 18:19:00,
2013-01-22 13:24:00,12.5,2.7,30.24,WNW,299,4.0,14.0,64,0.00,,,0.00,WUHU216DAVISVP2,2013-01-22 18:24:00,
2013-01-22 13:29:00,12.6,2.7,30.24,West,279,3.0,14.0,64,0.00,,,0.00,WUHU216DAVISVP2,2013-01-22 18:29:00,
2013-01-22 13:34:00,12.8,3.3,30.24,WNW,299,7.0,14.0,65,0.00,,,0.00,WUHU216DAVISVP2,2013-01-22 18:34:00,
2013-01-22 13:39:00,12.7,2.9,30.24,WNW,294,8.0,12.0,64,0.00,,,0.00,WUHU216DAVISVP2,2013-01-22 18:39:00,
2013-01-22 13:44:00,12.8,2.6,30.24,West,263,4.0,12.0,63,0.00,,,0.00,WUHU216DAVISVP2,2013-01-22 18:44:00,
2013-01-22 13:49:00,13.5,2.9,30.24,North,4,1.0,12.0,62,0.00,,,0.00,WUHU216DAVISVP2,2013-01-22 18:49:00,
2013-01-22 13:54:00,13.9,2.2,30.24,NW,320,2.0,12.0,59,0.00,,,0.00,WUHU216DAVISVP2,2013-01-22 18:54:00,
2013-01-22 13:59:00,14.4,2.3,30.24,NW,308,2.0,12.0,58,0.00,,,0.00,WUHU216DAVISVP2,2013-01-22 18:59:00,
2013-01-22 14:04:00,14.9,2.0,30.24,West,263,2.0,11.0,56,0.00,,,0.00,WUHU216DAVISVP2,2013-01-22 19:04:00,
2013-01-22 14:09:00,15.5,2.2,30.24,WNW,285,8.0,17.0,55,0.00,,,0.00,WUHU216DAVISVP2,2013-01-22 19:09:00,
2013-01-22 14:14:00,15.0,0.9,30.25,WSW,245,12.0,17.0,53,0.00,,,0.00,WUHU216DAVISVP2,2013-01-22 19:14:00,
2013-01-22 14:19:00,14.7,1.4,30.25,WNW,295,9.0,19.0,55,0.00,,,0.00,WUHU216DAVISVP2,2013-01-22 19:19:00,
2013-01-22 14:24:00,14.3,1.1,30.25,NNE,12,4.0,19.0,55,0.00,,,0.00,WUHU216DAVISVP2,2013-01-22 19:24:00,
2013-01-22 14:29:00,14.0,1.2,30.25,WNW,299,6.0,19.0,56,0.00,,,0.00,WUHU216DAVISVP2,2013-01-22 19:29:00,
2013-01-22 14:34:00,13.9,1.5,30.25,WNW,300,8.0,19.0,57,0.00,,,0.00,WUHU216DAVISVP2,2013-01-22 19:34:00,
2013-01-22 14:39:00,13.6,1.2,30.25,WNW,298,10.0,16.0,57,0.00,,,0.00,WUHU216DAVISVP2,2013-01-22 19:39:00,
2013-01-22 14:44:00,13.7,2.4,30.25,NW,305,4.0,16.0,60,0.00,,,0.00,WUHU216DAVISVP2,2013-01-22 19:44:00,
2013-01-22 14:49:00,14.1,3.1,30.25,West,270,2.0,16.0,61,0.00,,,0.00,WUHU216DAVISVP2,2013-01-22 19:49:00,
2013-01-22 14:54:00,14.0,3.4,30.25,West,266,9.0,15.0,62,0.00,,,0.00,WUHU216DAVISVP2,2013-01-22 19:54:00,
2013-01-22 14:59:00,13.9,4.0,30.25,NW,317,8.0,12.0,64,0.00,,,0.00,WUHU216DAVISVP2,2013-01-22 19:59:00,
2013-01-22 15:04:00,13.8,3.6,30.25,West,280,12.0,12.0,63,0.00,,,0.00,WUHU216DAVISVP2,2013-01-22 20:04:00,
2013-01-22 15:09:00,14.1,3.9,30.25,WNW,300,1.0,12.0,63,0.00,,,0.00,WUHU216DAVISVP2,2013-01-22 20:09:00,
2013-01-22 15:14:00,14.9,4.3,30.25,West,274,6.0,12.0,62,0.00,,,0.00,WUHU216DAVISVP2,2013-01-22 20:14:00,
2013-01-22 15:19:00,15.5,3.7,30.25,SW,225,8.0,13.0,59,0.00,,,0.00,WUHU216DAVISVP2,2013-01-22 20:19:00,
2013-01-22 15:24:00,14.8,1.9,30.25,SW,233,12.0,17.0,56,0.00,,,0.00,WUHU216DAVISVP2,2013-01-22 20:24:00,
2013-01-22 15:29:00,14.5,2.8,30.25,NW,308,5.0,17.0,59,0.00,,,0.00,WUHU216DAVISVP2,2013-01-22 20:29:00,
2013-01-22 15:34:00,14.5,2.4,30.25,WSW,245,7.0,17.0,58,0.00,,,0.00,WUHU216DAVISVP2,2013-01-22 20:34:00,
2013-01-22 15:39:00,14.4,2.7,30.25,NNW,338,1.0,17.0,59,0.00,,,0.00,WUHU216DAVISVP2,2013-01-22 20:39:00,
2013-01-22 15:44:00,14.4,3.4,30.25,NNE,14,9.0,19.0,61,0.00,,,0.00,WUHU216DAVISVP2,2013-01-22 20:44:00,
2013-01-22 15:49:00,14.3,3.0,30.25,West,275,5.0,19.0,60,0.00,,,0.00,WUHU216DAVISVP2,2013-01-22 20:49:00,
2013-01-22 15:54:00,13.9,2.6,30.25,NW,318,3.0,19.0,60,0.00,,,0.00,WUHU216DAVISVP2,2013-01-22 20:54:00,
2013-01-22 15:59:00,13.7,2.8,30.25,WSW,258,8.0,19.0,61,0.00,,,0.00,WUHU216DAVISVP2,2013-01-22 20:59:00,
2013-01-22 16:04:00,13.6,3.4,30.26,NW,312,3.0,16.0,63,0.00,,,0.00,WUHU216DAVISVP2,2013-01-22 21:04:00,
2013-01-22 16:09:00,13.6,4.1,30.26,NW,322,8.0,14.0,65,0.00,,,0.00,WUHU216DAVISVP2,2013-01-22 21:09:00,
2013-01-22 16:14:00,13.5,4.3,30.26,West,280,6.0,11.0,66,0.00,,,0.00,WUHU216DAVISVP2,2013-01-22 21:14:00,
2013-01-22 16:19:00,13.3,4.4,30.26,NNW,345,9.0,12.0,67,0.00,,,0.00,WUHU216DAVISVP2,2013-01-22 21:19:00,
2013-01-22 16:24:00,13.3,4.4,30.26,WNW,292,2.0,12.0,67,0.00,,,0.00,WUHU216DAVISVP2,2013-01-22 21:24:00,
2013-01-22 16:29:00,13.5,4.3,30.26,WNW,300,8.0,12.0,66,0.00,,,0.00,WUHU216DAVISVP2,2013-01-22 21:29:00,
2013-01-22 16:32:00,13.5,3.9,30.26,NW,326,5.0,12.0,65,0.00,,,0.00,WUHU216DAVISVP2,2013-01-22 21:32:00,
2013-01-22 16:37:00,13.6,4.0,30.27,NW,320,5.0,11.0,65,0.00,,,0.00,WUHU216DAVISVP2,2013-01-22 21:37:00,
2013-01-22 16:42:00,13.7,3.1,30.27,WSW,247,9.0,11.0,62,0.00,,,0.00,WUHU216DAVISVP2,2013-01-22 21:42:00,
2013-01-22 16:47:00,13.7,2.4,30.27,NW,309,6.0,12.0,60,0.00,,,0.00,WUHU216DAVISVP2,2013-01-22 21:47:00,
2013-01-22 16:52:00,13.6,2.3,30.27,West,270,3.0,12.0,60,0.00,,,0.00,WUHU216DAVISVP2,2013-01-22 21:52:00,
2013-01-22 16:57:00,13.5,1.9,30.28,West,274,4.0,12.0,59,0.00,,,0.00,WUHU216DAVISVP2,2013-01-22 21:57:00,
2013-01-22 17:02:00,13.5,1.9,30.28,WSW,247,8.0,17.0,59,0.00,,,0.00,WUHU216DAVISVP2,2013-01-22 22:02:00,
2013-01-22 17:07:00,13.3,2.0,30.28,WNW,296,6.0,17.0,60,0.00,,,0.00,WUHU216DAVISVP2,2013-01-22 22:07:00,
2013-01-22 17:12:00,13.2,1.9,30.28,NW,311,7.0,17.0,60,0.00,,,0.00,WUHU216DAVISVP2,2013-01-22 22:12:00,
2013-01-22 17:17:00,13.1,1.8,30.28,WNW,292,6.0,17.0,60,0.00,,,0.00,WUHU216DAVISVP2,2013-01-22 22:17:00,
2013-01-22 17:22:00,13.0,1.7,30.29,WNW,291,5.0,13.0,60,0.00,,,0.00,WUHU216DAVISVP2,2013-01-22 22:22:00,
2013-01-22 17:27:00,13.0,2.1,30.29,West,270,4.0,13.0,61,0.00,,,0.00,WUHU216DAVISVP2,2013-01-22 22:27:00,
2013-01-22 17:33:00,12.9,2.4,30.29,NW,308,0.0,13.0,62,0.00,,,0.00,WUHU216DAVISVP2,2013-01-22 22:33:00,
2013-01-22 17:37:00,12.8,2.6,30.29,NW,306,0.0,11.0,63,0.00,,,0.00,WUHU216DAVISVP2,2013-01-22 22:37:00,
2013-01-22 17:42:00,12.8,2.6,30.29,NW,314,3.0,11.0,63,0.00,,,0.00,WUHU216DAVISVP2,2013-01-22 22:42:00,
2013-01-22 17:47:00,12.7,2.9,30.30,NNW,331,0.0,5.0,64,0.00,,,0.00,WUHU216DAVISVP2,2013-01-22 22:47:00,
2013-01-22 17:52:00,12.6,2.8,30.30,SSW,213,1.0,5.0,64,0.00,,,0.00,WUHU216DAVISVP2,2013-01-22 22:52:00,
2013-01-22 17:58:00,12.6,3.1,30.30,SSW,213,0.0,5.0,65,0.00,,,0.00,WUHU216DAVISVP2,2013-01-22 22:58:00,
2013-01-22 18:03:00,12.5,2.6,30.30,NW,320,2.0,6.0,64,0.00,,,0.00,WUHU216DAVISVP2,2013-01-22 23:03:00,
2013-01-22 18:08:00,12.5,2.7,30.30,WNW,297,1.0,6.0,64,0.00,,,0.00,WUHU216DAVISVP2,2013-01-22 23:08:00,
2013-01-22 18:12:00,12.4,2.9,30.30,WNW,301,0.0,6.0,65,0.00,,,0.00,WUHU216DAVISVP2,2013-01-22 23:12:00,
2013-01-22 18:17:00,12.3,2.8,30.30,WNW,292,0.0,6.0,65,0.00,,,0.00,WUHU216DAVISVP2,2013-01-22 23:17:00,
2013-01-22 18:23:00,12.2,2.4,30.30,North,349,0.0,5.0,64,0.00,,,0.00,WUHU216DAVISVP2,2013-01-22 23:23:00,
2013-01-22 18:28:00,12.2,2.7,30.31,SW,236,0.0,5.0,65,0.00,,,0.00,WUHU216DAVISVP2,2013-01-22 23:28:00,
2013-01-22 18:33:00,12.1,3.0,30.31,SSW,209,2.0,7.0,66,0.00,,,0.00,WUHU216DAVISVP2,2013-01-22 23:33:00,
2013-01-22 18:38:00,12.0,3.2,30.30,West,276,0.0,7.0,67,0.00,,,0.00,WUHU216DAVISVP2,2013-01-22 23:38:00,
2013-01-22 18:43:00,11.9,3.7,30.31,SW,222,1.0,7.0,69,0.00,,,0.00,WUHU216DAVISVP2,2013-01-22 23:43:00,
2013-01-22 18:48:00,11.9,3.7,30.31,West,272,0.0,7.0,69,0.00,,,0.00,WUHU216DAVISVP2,2013-01-22 23:48:00,
2013-01-22 18:53:00,11.8,3.6,30.31,WNW,296,0.0,5.0,69,0.00,,,0.00,WUHU216DAVISVP2,2013-01-22 23:53:00,
2013-01-22 18:58:00,11.8,3.6,30.31,WNW,295,2.0,5.0,69,0.00,,,0.00,WUHU216DAVISVP2,2013-01-22 23:58:00,
2013-01-22 19:03:00,11.8,3.0,30.31,West,265,4.0,5.0,67,0.00,,,0.00,WUHU216DAVISVP2,2013-01-23 00:03:00,
2013-01-22 19:08:00,11.9,3.1,30.31,WNW,297,2.0,8.0,67,0.00,,,0.00,WUHU216DAVISVP2,2013-01-23 00:08:00,
2013-01-22 19:13:00,11.9,2.8,30.31,NW,311,0.0,8.0,66,0.00,,,0.00,WUHU216DAVISVP2,2013-01-23 00:13:00,
2013-01-22 19:18:00,11.9,2.7,30.31,NW,311,0.0,7.0,66,0.00,,,0.00,WUHU216DAVISVP2,2013-01-23 00:18:00,
2013-01-22 19:23:00,11.9,3.1,30.32,SW,229,1.0,7.0,67,0.00,,,0.00,WUHU216DAVISVP2,2013-01-23 00:23:00,
2013-01-22 19:28:00,11.9,2.4,30.32,NNE,27,2.0,6.0,65,0.00,,,0.00,WUHU216DAVISVP2,2013-01-23 00:28:00,
2013-01-22 19:33:00,11.9,2.4,30.32,SW,234,0.0,6.0,65,0.00,,,0.00,WUHU216DAVISVP2,2013-01-23 00:33:00,
2013-01-22 19:38:00,11.8,2.3,30.32,WNW,296,1.0,6.0,65,0.00,,,0.00,WUHU216DAVISVP2,2013-01-23 00:38:00,
2013-01-22 19:43:00,11.8,2.3,30.32,South,175,0.0,6.0,65,0.00,,,0.00,WUHU216DAVISVP2,2013-01-23 00:43:00,
2013-01-22 19:48:00,11.8,2.7,30.32,SSW,194,0.0,5.0,66,0.00,,,0.00,WUHU216DAVISVP2,2013-01-23 00:48:00,
2013-01-22 19:53:00,11.8,3.0,30.33,South,183,0.0,5.0,67,0.00,,,0.00,WUHU216DAVISVP2,2013-01-23 00:53:00,
2013-01-22 19:58:00,11.8,2.7,30.33,West,271,3.0,5.0,66,0.00,,,0.00,WUHU216DAVISVP2,2013-01-23 00:58:00,
2013-01-22 20:03:00,11.8,2.3,30.33,NNW,335,0.0,6.0,65,0.00,,,0.00,WUHU216DAVISVP2,2013-01-23 01:03:00,
2013-01-22 20:08:00,11.8,2.7,30.33,NNW,339,1.0,6.0,66,0.00,,,0.00,WUHU216DAVISVP2,2013-01-23 01:08:00,
2013-01-22 20:13:00,11.7,2.5,30.33,SW,217,2.0,6.0,66,0.00,,,0.00,WUHU216DAVISVP2,2013-01-23 01:13:00,
2013-01-22 20:18:00,11.6,2.5,30.33,WSW,245,2.0,6.0,66,0.00,,,0.00,WUHU216DAVISVP2,2013-01-23 01:18:00,
2013-01-22 20:23:00,11.6,2.8,30.33,West,268,5.0,7.0,67,0.00,,,0.00,WUHU216DAVISVP2,2013-01-23 01:23:00,
2013-01-22 20:28:00,11.5,3.0,30.33,West,277,3.0,11.0,68,0.00,,,0.00,WUHU216DAVISVP2,2013-01-23 01:28:00,
2013-01-22 20:33:00,11.5,3.3,30.33,WNW,297,1.0,11.0,69,0.00,,,0.00,WUHU216DAVISVP2,2013-01-23 01:33:00,
2013-01-22 20:38:00,11.4,3.2,30.33,West,280,1.0,11.0,69,0.00,,,0.00,WUHU216DAVISVP2,2013-01-23 01:38:00,
2013-01-22 20:43:00,11.4,3.2,30.33,West,268,1.0,11.0,69,0.00,,,0.00,WUHU216DAVISVP2,2013-01-23 01:43:00,
2013-01-22 20:48:00,11.4,3.6,30.33,WNW,283,2.0,5.0,70,0.00,,,0.00,WUHU216DAVISVP2,2013-01-23 01:48:00,
2013-01-22 20:53:00,11.3,4.1,30.34,WSW,245,1.0,5.0,72,0.00,,,0.00,WUHU216DAVISVP2,2013-01-23 01:53:00,
2013-01-22 20:58:00,11.2,4.3,30.33,WSW,256,1.0,5.0,73,0.00,,,0.00,WUHU216DAVISVP2,2013-01-23 01:58:00,
2013-01-22 21:03:00,11.1,4.2,30.34,North,10,4.0,8.0,73,0.00,,,0.00,WUHU216DAVISVP2,2013-01-23 02:03:00,
2013-01-22 21:08:00,11.0,4.3,30.34,WNW,293,0.0,8.0,74,0.00,,,0.00,WUHU216DAVISVP2,2013-01-23 02:08:00,
2013-01-22 21:13:00,11.0,4.4,30.33,WNW,293,0.0,8.0,74,0.00,,,0.00,WUHU216DAVISVP2,2013-01-23 02:13:00,
2013-01-22 21:18:00,11.0,4.4,30.33,North,4,1.0,8.0,74,0.00,,,0.00,WUHU216DAVISVP2,2013-01-23 02:18:00,
2013-01-22 21:23:00,10.9,4.3,30.34,North,4,0.0,5.0,74,0.00,,,0.00,WUHU216DAVISVP2,2013-01-23 02:23:00,
2013-01-22 21:29:00,10.8,4.2,30.33,North,4,0.0,4.0,74,0.00,,,0.00,WUHU216DAVISVP2,2013-01-23 02:29:00,
2013-01-22 21:34:00,10.8,4.7,30.33,West,261,1.0,4.0,76,0.00,,,0.00,WUHU216DAVISVP2,2013-01-23 02:34:00,
2013-01-22 21:39:00,10.8,4.4,30.33,West,261,0.0,4.0,75,0.00,,,0.00,WUHU216DAVISVP2,2013-01-23 02:39:00,
2013-01-22 21:44:00,10.8,4.5,30.33,West,261,0.0,4.0,75,0.00,,,0.00,WUHU216DAVISVP2,2013-01-23 02:44:00,
2013-01-22 21:49:00,10.8,4.5,30.33,WSW,237,3.0,4.0,75,0.00,,,0.00,WUHU216DAVISVP2,2013-01-23 02:49:00,
2013-01-22 21:54:00,10.8,4.4,30.33,SSW,209,0.0,3.0,75,0.00,,,0.00,WUHU216DAVISVP2,2013-01-23 02:54:00,
2013-01-22 21:59:00,10.8,4.2,30.33,NNW,347,3.0,4.0,74,0.00,,,0.00,WUHU216DAVISVP2,2013-01-23 02:59:00,
2013-01-22 22:04:00,10.8,3.9,30.33,West,276,3.0,6.0,73,0.00,,,0.00,WUHU216DAVISVP2,2013-01-23 03:04:00,
2013-01-22 22:09:00,10.8,4.5,30.33,NNW,331,3.0,6.0,75,0.00,,,0.00,WUHU216DAVISVP2,2013-01-23 03:09:00,
2013-01-22 22:14:00,10.8,4.2,30.33,SW,224,0.0,6.0,74,0.00,,,0.00,WUHU216DAVISVP2,2013-01-23 03:14:00,
2013-01-22 22:19:00,10.7,4.1,30.33,SSW,208,0.0,6.0,74,0.00,,,0.00,WUHU216DAVISVP2,2013-01-23 03:19:00,
2013-01-22 22:24:00,10.7,4.0,30.33,WSW,239,1.0,6.0,74,0.00,,,0.00,WUHU216DAVISVP2,2013-01-23 03:24:00,
2013-01-22 22:29:00,10.7,4.1,30.33,SSW,208,0.0,6.0,74,0.00,,,0.00,WUHU216DAVISVP2,2013-01-23 03:29:00,
2013-01-22 22:34:00,10.7,3.8,30.33,West,277,1.0,4.0,73,0.00,,,0.00,WUHU216DAVISVP2,2013-01-23 03:34:00,
2013-01-22 22:39:00,10.7,4.1,30.33,West,273,0.0,4.0,74,0.00,,,0.00,WUHU216DAVISVP2,2013-01-23 03:39:00,
2013-01-22 22:44:00,10.8,3.9,30.34,SSW,195,6.0,6.0,73,0.00,,,0.00,WUHU216DAVISVP2,2013-01-23 03:44:00,
2013-01-22 22:49:00,10.8,3.6,30.34,SW,224,1.0,7.0,72,0.00,,,0.00,WUHU216DAVISVP2,2013-01-23 03:49:00,
2013-01-22 22:54:00,10.8,3.3,30.34,SW,216,2.0,7.0,71,0.00,,,0.00,WUHU216DAVISVP2,2013-01-23 03:54:00,
2013-01-22 22:59:00,10.8,3.5,30.34,WSW,245,1.0,7.0,72,0.00,,,0.00,WUHU216DAVISVP2,2013-01-23 03:59:00,
2013-01-22 23:04:00,10.8,3.3,30.34,WNW,285,1.0,7.0,71,0.00,,,0.00,WUHU216DAVISVP2,2013-01-23 04:04:00,
2013-01-22 23:09:00,10.7,2.8,30.34,NW,310,0.0,7.0,70,0.00,,,0.00,WUHU216DAVISVP2,2013-01-23 04:09:00,
2013-01-22 23:14:00,10.7,2.9,30.34,SW,219,2.0,7.0,70,0.00,,,0.00,WUHU216DAVISVP2,2013-01-23 04:14:00,
2013-01-22 23:19:00,10.6,2.8,30.33,NW,312,1.0,7.0,70,0.00,,,0.00,WUHU216DAVISVP2,2013-01-23 04:19:00,
2013-01-22 23:24:00,10.6,3.0,30.33,NW,324,3.0,7.0,71,0.00,,,0.00,WUHU216DAVISVP2,2013-01-23 04:24:00,
2013-01-22 23:29:00,10.5,3.0,30.33,NNW,339,3.0,7.0,71,0.00,,,0.00,WUHU216DAVISVP2,2013-01-23 04:29:00,
2013-01-22 23:34:00,10.4,2.6,30.33,ENE,64,0.0,4.0,70,0.00,,,0.00,WUHU216DAVISVP2,2013-01-23 04:34:00,
2013-01-22 23:39:00,10.3,2.8,30.33,NE,41,0.0,4.0,71,0.00,,,0.00,WUHU216DAVISVP2,2013-01-23 04:39:00,
2013-01-22 23:44:00,10.3,2.4,30.33,NE,38,2.0,4.0,70,0.00,,,0.00,WUHU216DAVISVP2,2013-01-23 04:44:00,
2013-01-22 23:49:00,10.3,2.2,30.33,South,181,1.0,4.0,69,0.00,,,0.00,WUHU216DAVISVP2,2013-01-23 04:49:00,
2013-01-22 23:54:00,10.2,2.4,30.33,South,184,1.0,3.0,70,0.00,,,0.00,WUHU216DAVISVP2,2013-01-23 04:54:00,
2013-01-22 23:59:00,10.2,2.7,30.33,SW,229,0.0,3.0,71,0.00,,,0.00,WUHU216DAVISVP2,2013-01-23 04:59:00,